createdAt,value
2019-04-01T00:00:23.515Z,68.70
2019-04-01T00:02:50.230Z,62.67
2019-04-01T00:05:17.090Z,48.53
2019-04-01T00:07:43.515Z,87.50
2019-04-01T00:10:10.221Z,85.23
2019-04-01T00:12:36.774Z,85.33
2019-04-01T00:15:04.990Z,84.60
2019-04-01T00:17:31.491Z,93.93
2019-04-01T00:19:58.050Z,88.10
2019-04-01T00:22:24.647Z,54.10
2019-04-01T00:24:51.048Z,69.43
2019-04-01T00:27:18.048Z,50.80
2019-04-01T00:29:44.546Z,54.23
2019-04-01T00:32:11.050Z,60.07
2019-04-01T00:34:37.974Z,62.63
2019-04-01T00:37:04.489Z,50.20
2019-04-01T00:39:30.885Z,56.10
2019-04-01T00:41:59.353Z,66.47
2019-04-01T00:44:25.861Z,58.73
2019-04-01T00:46:52.365Z,59.73
2019-04-01T00:49:18.905Z,57.93
2019-04-01T00:51:45.427Z,53.37
2019-04-01T00:54:12.107Z,62.10
2019-04-01T00:56:38.515Z,46.30
2019-04-01T00:59:05.019Z,35.63
2019-04-01T01:01:31.676Z,35.07
2019-04-01T01:03:58.499Z,34.10
2019-04-01T01:06:24.911Z,28.97
2019-04-01T01:08:51.366Z,33.30
2019-04-01T01:11:17.867Z,38.90
2019-04-01T01:13:44.376Z,32.77
2019-04-01T01:16:10.946Z,36.53
2019-04-01T01:18:37.452Z,33.90
2019-04-01T01:21:04.082Z,30.10
2019-04-01T01:23:30.527Z,30.40
2019-04-01T01:25:56.932Z,28.30
2019-04-01T01:28:23.490Z,29.57
2019-04-01T01:30:49.926Z,33.53
2019-04-01T01:33:16.327Z,28.33
2019-04-01T01:35:42.877Z,28.87
2019-04-01T01:38:09.391Z,28.73
2019-04-01T01:40:35.920Z,27.50
2019-04-01T01:43:02.572Z,34.33
2019-04-01T01:45:28.991Z,30.43
2019-04-01T01:47:55.413Z,30.90
2019-04-01T01:50:21.961Z,26.87
2019-04-01T01:52:48.387Z,29.53
2019-04-01T01:55:15.336Z,26.57
2019-04-01T01:57:41.802Z,23.43
2019-04-01T02:00:09.056Z,27.80
2019-04-01T02:02:35.515Z,21.77
2019-04-01T02:05:02.487Z,25.63
2019-04-01T02:07:28.880Z,38.00
2019-04-01T02:09:55.403Z,39.30
2019-04-01T02:12:23.042Z,34.70
2019-04-01T02:14:49.608Z,36.03
2019-04-01T02:17:16.202Z,38.67
2019-04-01T02:19:44.566Z,23.37
2019-04-01T02:22:10.986Z,25.53
2019-04-01T02:24:37.786Z,23.70
2019-04-01T02:27:04.627Z,38.63
2019-04-01T02:29:31.045Z,38.23
2019-04-01T02:31:57.600Z,71.73
2019-04-01T02:34:24.129Z,142.83
2019-04-01T02:36:50.729Z,160.70
2019-04-01T02:39:17.236Z,92.23
2019-04-01T02:41:43.801Z,73.37
2019-04-01T02:44:10.308Z,79.83
2019-04-01T02:46:36.817Z,71.47
2019-04-01T02:49:03.367Z,90.87
2019-04-01T02:51:29.879Z,148.10
2019-04-01T02:53:56.482Z,154.33
2019-04-01T02:56:23.120Z,178.90
2019-04-01T02:58:49.730Z,186.87
2019-04-01T03:01:16.342Z,193.83
2019-04-01T03:03:42.875Z,164.47
2019-04-01T03:06:09.545Z,126.93
2019-04-01T03:08:36.516Z,137.07
2019-04-01T03:11:04.101Z,113.80
2019-04-01T03:13:30.733Z,97.03
2019-04-01T03:15:57.509Z,106.10
2019-04-01T03:18:23.969Z,85.53
2019-04-01T03:20:50.438Z,80.20
2019-04-01T03:23:17.010Z,66.77
2019-04-01T03:25:44.139Z,58.57
2019-04-01T03:28:10.690Z,47.53
2019-04-01T03:30:37.209Z,47.30
2019-04-01T03:33:04.038Z,39.27
2019-04-01T03:35:30.699Z,41.80
2019-04-01T03:37:57.314Z,45.67
2019-04-01T03:40:23.821Z,41.07
2019-04-01T03:42:50.595Z,41.20
2019-04-01T03:45:17.524Z,54.47
2019-04-01T03:47:43.956Z,66.53
2019-04-01T03:50:10.626Z,70.53
2019-04-01T03:52:37.139Z,113.70
2019-04-01T03:55:04.759Z,97.33
2019-04-01T03:57:31.286Z,100.80
2019-04-01T03:59:57.802Z,108.53
2019-04-01T04:02:24.709Z,160.27
2019-04-01T04:04:51.124Z,298.87
2019-04-01T04:07:17.739Z,450.37
2019-04-01T04:09:44.224Z,467.43
2019-04-01T04:12:10.715Z,430.60
2019-04-01T04:14:37.240Z,413.40
2019-04-01T04:17:03.811Z,427.53
2019-04-01T04:19:30.336Z,388.03
2019-04-01T04:21:56.992Z,386.77
2019-04-01T04:24:23.645Z,389.90
2019-04-01T04:26:50.171Z,344.00
2019-04-01T04:29:16.613Z,272.23
2019-04-01T04:31:43.346Z,212.50
2019-04-01T04:34:09.963Z,185.70
2019-04-01T04:36:36.484Z,164.30
2019-04-01T04:39:05.117Z,120.67
2019-04-01T04:41:31.624Z,81.17
2019-04-01T04:43:58.584Z,73.47
2019-04-01T04:46:25.936Z,73.73
2019-04-01T04:48:52.621Z,66.57
2019-04-01T04:51:19.480Z,68.40
2019-04-01T04:53:46.362Z,61.70
2019-04-01T04:56:13.043Z,55.90
2019-04-01T04:58:39.645Z,53.33
2019-04-01T05:01:06.351Z,65.80
2019-04-01T05:03:32.911Z,67.70
2019-04-01T05:05:59.319Z,70.63
2019-04-01T05:08:26.043Z,86.53
2019-04-01T05:10:52.688Z,91.00
2019-04-01T05:13:19.243Z,100.23
2019-04-01T05:15:45.685Z,133.67
2019-04-01T05:18:12.128Z,149.37
2019-04-01T05:20:39.546Z,148.33
2019-04-01T05:23:07.091Z,167.63
2019-04-01T05:25:34.090Z,134.20
2019-04-01T05:28:01.909Z,110.83
2019-04-01T05:30:30.248Z,95.70
2019-04-01T05:32:56.895Z,90.83
2019-04-01T05:35:23.903Z,110.97
2019-04-01T05:37:50.618Z,88.40
2019-04-01T05:40:17.675Z,110.10
2019-04-01T05:42:44.275Z,92.63
2019-04-01T05:45:10.913Z,98.47
2019-04-01T05:47:39.465Z,95.23
2019-04-01T05:50:06.155Z,83.30
2019-04-01T05:52:32.580Z,83.53
2019-04-01T05:54:59.330Z,85.17
2019-04-01T05:57:26.699Z,93.20
2019-04-01T05:59:53.197Z,81.07
2019-04-01T06:02:20.582Z,87.13
2019-04-01T06:04:47.375Z,81.77
2019-04-01T06:07:13.988Z,77.27
2019-04-01T06:09:40.840Z,80.93
2019-04-01T06:12:07.457Z,86.67
2019-04-01T06:14:34.059Z,83.83
2019-04-01T06:17:00.727Z,84.00
2019-04-01T06:19:27.342Z,74.07
2019-04-01T06:21:54.152Z,94.07
2019-04-01T06:24:24.474Z,80.07
2019-04-01T06:26:49.669Z,79.33
2019-04-01T06:29:16.282Z,72.23
2019-04-01T06:31:43.240Z,74.93
2019-04-01T06:34:10.045Z,70.17
2019-04-01T06:36:38.803Z,66.50
2019-04-01T06:39:05.686Z,52.13
2019-04-01T06:41:32.491Z,51.43
2019-04-01T06:43:59.176Z,49.07
2019-04-01T06:46:26.122Z,53.10
2019-04-01T06:48:53.068Z,53.77
2019-04-01T06:51:19.542Z,48.00
2019-04-01T06:53:46.134Z,61.60
2019-04-01T06:56:12.752Z,51.40
2019-04-01T06:58:39.373Z,64.97
2019-04-01T07:01:05.887Z,79.07
2019-04-01T07:03:32.890Z,69.67
2019-04-01T07:05:59.800Z,68.07
2019-04-01T07:08:26.441Z,47.37
2019-04-01T07:10:53.053Z,62.17
2019-04-01T07:13:19.690Z,48.63
2019-04-01T07:15:46.344Z,43.83
2019-04-01T07:18:12.957Z,43.57
2019-04-01T07:20:39.575Z,47.47
2019-04-01T07:23:06.569Z,38.70
2019-04-01T07:25:34.253Z,40.03
2019-04-01T07:28:00.929Z,43.37
2019-04-01T07:30:27.568Z,39.17
2019-04-01T07:32:54.173Z,37.00
2019-04-01T07:35:20.686Z,45.80
2019-04-01T07:37:47.334Z,34.97
2019-04-01T07:40:14.202Z,38.17
2019-04-01T07:42:40.856Z,29.73
2019-04-01T07:45:08.301Z,23.33
2019-04-01T07:47:34.903Z,30.87
2019-04-01T07:50:01.596Z,24.40
2019-04-01T07:52:28.174Z,29.13
2019-04-01T07:54:54.793Z,35.60
2019-04-01T07:57:21.453Z,25.73
2019-04-01T07:59:48.066Z,21.47
2019-04-01T08:02:14.689Z,24.20
2019-04-01T08:04:41.465Z,23.10
2019-04-01T08:07:08.063Z,23.90
2019-04-01T08:09:34.564Z,30.13
2019-04-01T08:12:01.124Z,24.37
2019-04-01T08:14:27.934Z,22.50
2019-04-01T08:16:58.367Z,14.67
2019-04-01T08:19:23.211Z,13.00
2019-04-01T08:21:52.353Z,9.73
2019-04-01T08:24:18.243Z,12.37
2019-04-01T08:26:44.828Z,14.27
2019-04-01T08:29:11.661Z,14.73
2019-04-01T08:31:38.156Z,14.60
2019-04-01T08:34:04.844Z,17.97
2019-04-01T08:36:31.876Z,18.70
2019-04-01T08:38:58.394Z,18.97
2019-04-01T08:41:25.333Z,15.57
2019-04-01T08:43:51.987Z,13.57
2019-04-01T08:46:18.631Z,12.97
2019-04-01T08:48:45.304Z,7.30
2019-04-01T08:51:11.894Z,8.27
2019-04-01T08:53:38.833Z,8.10
2019-04-01T08:56:05.484Z,9.63
2019-04-01T08:58:32.068Z,7.40
2019-04-01T09:00:58.763Z,8.80
2019-04-01T09:03:25.429Z,8.47
2019-04-01T09:05:52.127Z,6.97
2019-04-01T09:08:19.978Z,9.27
2019-04-01T09:10:46.960Z,3.50
2019-04-01T09:13:14.192Z,6.27
2019-04-01T09:15:41.318Z,4.63
2019-04-01T09:18:08.182Z,5.53
2019-04-01T09:20:34.703Z,7.70
2019-04-01T09:23:01.231Z,5.27
2019-04-01T09:25:27.881Z,4.97
2019-04-01T09:27:54.481Z,4.53
2019-04-01T09:30:21.144Z,7.53
2019-04-01T09:32:47.640Z,3.60
2019-04-01T09:35:14.250Z,6.17
2019-04-01T09:37:40.810Z,3.63
2019-04-01T09:40:07.425Z,3.47
2019-04-01T09:42:34.071Z,3.93
2019-04-01T09:45:00.577Z,3.33
2019-04-01T09:47:27.173Z,4.17
2019-04-01T09:49:53.936Z,5.77
2019-04-01T09:52:20.997Z,1.83
2019-04-01T09:54:47.819Z,5.07
2019-04-01T09:57:18.037Z,1.97
2019-04-01T09:59:42.845Z,2.07
2019-04-01T10:02:09.339Z,2.37
2019-04-01T10:04:36.372Z,3.73
2019-04-01T10:07:03.241Z,9.40
2019-04-01T10:09:29.884Z,5.47
2019-04-01T10:11:56.936Z,3.73
2019-04-01T10:14:24.031Z,3.07
2019-04-01T10:16:51.372Z,4.53
2019-04-01T10:19:18.831Z,8.63
2019-04-01T10:21:45.555Z,2.50
2019-04-01T10:24:12.068Z,6.53
2019-04-01T10:26:38.777Z,5.67
2019-04-01T10:29:05.613Z,4.80
2019-04-01T10:31:32.223Z,3.77
2019-04-01T10:34:01.426Z,3.53
2019-04-01T10:36:27.829Z,6.67
2019-04-01T10:38:54.569Z,5.23
2019-04-01T10:41:21.888Z,6.33
2019-04-01T10:43:48.715Z,5.00
2019-04-01T10:46:15.587Z,5.30
2019-04-01T10:48:42.248Z,5.67
2019-04-01T10:51:08.978Z,6.17
2019-04-01T10:53:35.540Z,6.47
2019-04-01T10:56:02.108Z,4.37
2019-04-01T10:58:28.801Z,6.17
2019-04-01T11:00:55.694Z,5.10
2019-04-01T11:03:22.632Z,4.70
2019-04-01T11:05:49.184Z,4.57
2019-04-01T11:08:15.787Z,5.60
2019-04-01T11:10:42.319Z,4.30
2019-04-01T11:13:08.816Z,4.80
2019-04-01T11:15:35.425Z,9.07
2019-04-01T11:18:02.099Z,4.53
2019-04-01T11:20:28.716Z,3.57
2019-04-01T11:22:55.359Z,4.03
2019-04-01T11:25:21.915Z,4.27
2019-04-01T11:27:48.575Z,6.63
2019-04-01T11:30:15.180Z,4.03
2019-04-01T11:32:42.752Z,6.13
2019-04-01T11:35:09.620Z,4.67
2019-04-01T11:37:36.311Z,4.00
2019-04-01T11:40:04.962Z,3.27
2019-04-01T11:42:31.804Z,4.60
2019-04-01T11:45:20.304Z,2.43
2019-04-01T11:47:53.322Z,4.57
2019-04-01T11:50:20.365Z,3.23
2019-04-01T11:53:02.090Z,5.33
2019-04-01T11:55:35.034Z,2.95
2019-04-01T11:58:02.042Z,2.35
2019-04-01T12:00:28.678Z,7.92
2019-04-01T12:02:55.429Z,4.22
2019-04-01T12:05:22.147Z,3.87
2019-04-01T12:07:48.830Z,3.40
2019-04-01T12:10:15.550Z,3.67
2019-04-01T12:12:42.258Z,2.92
2019-04-01T12:15:12.104Z,3.12
2019-04-01T12:17:41.374Z,2.42
2019-04-01T12:20:07.059Z,2.62
2019-04-01T12:22:34.567Z,5.72
2019-04-01T12:25:01.369Z,6.20
2019-04-01T12:27:27.900Z,2.58
2019-04-01T12:29:55.468Z,2.35
2019-04-01T12:32:26.531Z,3.02
2019-04-01T12:34:53.340Z,10.55
2019-04-01T12:37:20.068Z,3.70
2019-04-01T12:39:46.767Z,13.53
2019-04-01T12:42:13.526Z,4.37
2019-04-01T12:44:41.374Z,3.75
2019-04-01T12:47:08.421Z,4.25
2019-04-01T12:49:35.124Z,2.33
2019-04-01T12:52:01.769Z,5.20
2019-04-01T12:54:28.540Z,7.17
2019-04-01T12:56:55.761Z,5.08
2019-04-01T12:59:22.290Z,2.58
2019-04-01T13:01:49.686Z,2.10
2019-04-01T13:04:16.988Z,5.28
2019-04-01T13:06:44.522Z,3.80
2019-04-01T13:09:11.273Z,1.95
2019-04-01T13:11:38.050Z,3.02
2019-04-01T13:14:04.929Z,3.77
2019-04-01T13:16:31.655Z,1.75
2019-04-01T13:18:58.399Z,3.70
2019-04-01T13:21:27.443Z,2.72
2019-04-01T13:23:55.940Z,2.50
2019-04-01T13:26:22.646Z,2.90
2019-04-01T13:28:49.338Z,3.65
2019-04-01T13:31:16.340Z,2.77
2019-04-01T13:33:43.196Z,1.42
2019-04-01T13:36:10.002Z,3.42
2019-04-01T13:38:36.610Z,2.17
2019-04-01T13:41:03.535Z,2.85
2019-04-01T13:43:30.624Z,4.97
2019-04-01T13:45:57.185Z,3.35
2019-04-01T13:48:24.313Z,2.33
2019-04-01T13:50:51.057Z,2.80
2019-04-01T13:53:18.273Z,3.05
2019-04-01T13:55:45.091Z,4.15
2019-04-01T13:58:11.933Z,8.25
2019-04-01T14:00:39.134Z,4.17
2019-04-01T14:03:06.031Z,5.00
2019-04-01T14:05:40.715Z,7.33
2019-04-01T14:08:07.698Z,2.77
2019-04-01T14:10:34.671Z,4.00
2019-04-01T14:13:01.512Z,3.58
2019-04-01T14:15:28.298Z,4.15
2019-04-01T14:17:54.974Z,4.60
2019-04-01T14:20:21.994Z,4.62
2019-04-01T14:22:49.136Z,4.53
2019-04-01T14:25:16.011Z,5.67
2019-04-01T14:27:42.601Z,4.22
2019-04-01T14:30:09.950Z,4.10
2019-04-01T14:32:36.644Z,7.05
2019-04-01T14:35:06.033Z,2.77
2019-04-01T14:37:32.476Z,5.40
2019-04-01T14:39:59.513Z,4.37
2019-04-01T14:42:26.361Z,12.33
2019-04-01T14:44:58.428Z,4.12
2019-04-01T14:47:27.321Z,5.37
2019-04-01T14:49:53.974Z,6.40
2019-04-01T14:52:32.264Z,6.50
2019-04-01T14:54:54.778Z,5.62
2019-04-01T14:57:19.854Z,4.53
2019-04-01T14:59:46.607Z,6.80
2019-04-01T15:02:13.636Z,5.33
2019-04-01T15:04:40.567Z,5.70
2019-04-01T15:07:12.054Z,5.40
2019-04-01T15:09:46.788Z,5.70
2019-04-01T15:12:20.701Z,6.60
2019-04-01T15:14:58.402Z,5.60
2019-04-01T15:17:28.027Z,5.30
2019-04-01T15:19:57.269Z,4.60
2019-04-01T15:22:26.988Z,5.63
2019-04-01T15:24:52.254Z,5.47
2019-04-01T15:27:22.314Z,8.33
2019-04-01T15:29:47.266Z,3.73
2019-04-01T15:32:13.955Z,2.60
2019-04-01T15:34:40.598Z,10.93
2019-04-01T15:37:07.324Z,3.30
2019-04-01T15:39:34.354Z,4.07
2019-04-01T15:42:01.375Z,3.83
2019-04-01T15:44:29.399Z,16.10
2019-04-01T15:46:56.500Z,5.40
2019-04-01T15:49:23.043Z,5.40
2019-04-01T15:51:49.587Z,5.77
2019-04-01T15:54:16.217Z,5.43
2019-04-01T15:56:43.387Z,5.57
2019-04-01T15:59:10.007Z,5.97
2019-04-01T16:01:38.728Z,6.50
2019-04-01T16:04:05.136Z,4.50
2019-04-01T16:06:31.754Z,5.83
2019-04-01T16:08:58.614Z,6.57
2019-04-01T16:11:25.287Z,7.33
2019-04-01T16:13:51.803Z,5.47
2019-04-01T16:16:18.622Z,7.77
2019-04-01T16:18:45.271Z,4.90
2019-04-01T16:21:11.940Z,8.17
2019-04-01T16:23:39.368Z,6.07
2019-04-01T16:26:09.230Z,10.47
2019-04-01T16:28:34.239Z,12.57
2019-04-01T16:31:00.903Z,21.33
2019-04-01T16:33:27.664Z,9.60
2019-04-01T16:35:54.316Z,7.17
2019-04-01T16:38:20.947Z,15.33
2019-04-01T16:40:47.970Z,9.00
2019-04-01T16:43:14.799Z,8.57
2019-04-01T16:45:42.918Z,10.07
2019-04-01T16:48:09.768Z,8.87
2019-04-01T16:50:36.393Z,20.00
2019-04-01T16:53:03.112Z,19.63
2019-04-01T16:55:29.762Z,15.83
2019-04-01T16:57:56.382Z,27.90
2019-04-01T17:00:23.396Z,68.20
2019-04-01T17:02:50.235Z,43.23
2019-04-01T17:05:20.790Z,42.00
2019-04-01T17:07:47.526Z,28.97
2019-04-01T17:10:20.850Z,34.80
2019-04-01T17:12:47.350Z,43.53
2019-04-01T17:15:14.070Z,25.80
2019-04-01T17:17:40.655Z,21.50
2019-04-01T17:20:07.429Z,22.07
2019-04-01T17:22:34.096Z,55.00
2019-04-01T17:25:00.918Z,66.33
2019-04-01T17:27:27.605Z,82.03
2019-04-01T17:29:54.704Z,80.37
2019-04-01T17:32:23.951Z,45.20
2019-04-01T17:34:50.590Z,43.17
2019-04-01T17:37:17.235Z,23.33
2019-04-01T17:39:44.082Z,24.43
2019-04-01T17:42:10.688Z,91.93
2019-04-01T17:44:37.239Z,35.37
2019-04-01T17:47:03.875Z,27.33
2019-04-01T17:49:31.151Z,35.53
2019-04-01T17:51:57.898Z,62.40
2019-04-01T17:54:24.656Z,74.57
2019-04-01T17:56:51.644Z,62.57
2019-04-01T17:59:18.592Z,62.30
2019-04-01T18:01:45.209Z,62.07
2019-04-01T18:04:12.468Z,77.03
2019-04-01T18:06:39.019Z,91.03
2019-04-01T18:09:06.513Z,83.73
2019-04-01T18:11:33.090Z,94.07
2019-04-01T18:14:02.738Z,89.17
2019-04-01T18:16:31.110Z,93.00
2019-04-01T18:18:56.518Z,83.53
2019-04-01T18:21:22.990Z,66.27
2019-04-01T18:23:49.617Z,64.03
2019-04-01T18:26:16.179Z,76.33
2019-04-01T18:28:43.856Z,75.37
2019-04-01T18:31:10.423Z,48.13
2019-04-01T18:33:36.947Z,73.27
2019-04-01T18:36:03.733Z,48.37
2019-04-01T18:38:30.312Z,46.37
2019-04-01T18:40:56.851Z,36.33
2019-04-01T18:43:23.474Z,56.93
2019-04-01T18:45:50.359Z,56.67
2019-04-01T18:48:19.295Z,44.77
2019-04-01T18:50:46.219Z,55.37
2019-04-01T18:53:12.778Z,442.20
2019-04-01T18:55:40.415Z,90.73
2019-04-01T18:58:09.756Z,46.60
2019-04-01T19:00:36.316Z,36.30
2019-04-01T19:03:02.956Z,51.00
2019-04-01T19:05:29.485Z,62.20
2019-04-01T19:07:56.129Z,136.63
2019-04-01T19:10:22.680Z,158.47
2019-04-01T19:12:49.262Z,113.17
2019-04-01T19:15:15.986Z,89.27
2019-04-01T19:17:43.104Z,75.33
2019-04-01T19:20:11.422Z,83.97
2019-04-01T19:22:38.438Z,91.07
2019-04-01T19:25:05.939Z,80.27
2019-04-01T19:27:32.475Z,67.10
2019-04-01T19:29:59.056Z,94.33
2019-04-01T19:32:27.286Z,120.97
2019-04-01T19:34:53.976Z,129.50
2019-04-01T19:37:20.647Z,127.33
2019-04-01T19:39:47.074Z,62.73
2019-04-01T19:42:15.324Z,67.87
2019-04-01T19:44:42.270Z,45.63
2019-04-01T19:47:12.057Z,114.63
2019-04-01T19:49:38.693Z,336.37
2019-04-01T19:52:05.281Z,765.83
2019-04-01T19:54:34.056Z,646.43
2019-04-01T19:57:00.035Z,423.10
2019-04-01T19:59:26.585Z,250.87
2019-04-01T20:01:53.235Z,155.93
2019-04-01T20:04:19.950Z,109.47
2019-04-01T20:06:47.309Z,327.03
2019-04-01T20:09:14.188Z,202.20
2019-04-01T20:11:40.678Z,116.43
2019-04-01T20:14:07.230Z,100.20
2019-04-01T20:16:33.732Z,160.93
2019-04-01T20:19:00.556Z,181.50
2019-04-01T20:21:28.093Z,182.20
2019-04-01T20:23:55.012Z,168.60
2019-04-01T20:26:21.901Z,122.80
2019-04-01T20:28:48.468Z,94.80
2019-04-01T20:31:14.869Z,70.63
2019-04-01T20:33:41.548Z,68.77
2019-04-01T20:36:08.256Z,131.97
2019-04-01T20:38:34.753Z,159.27
2019-04-01T20:41:01.418Z,345.57
2019-04-01T20:43:28.332Z,97.47
2019-04-01T20:45:54.833Z,58.53
2019-04-01T20:48:21.647Z,51.27
2019-04-01T20:50:48.165Z,34.87
2019-04-01T20:53:14.867Z,81.27
2019-04-01T20:55:48.023Z,123.93
2019-04-01T20:58:09.941Z,69.27
2019-04-01T21:00:38.061Z,46.63
2019-04-01T21:03:04.592Z,36.47
2019-04-01T21:05:31.185Z,32.20
2019-04-01T21:07:59.532Z,30.17
2019-04-01T21:10:26.443Z,33.57
2019-04-01T21:12:53.223Z,92.20
2019-04-01T21:15:22.399Z,84.40
2019-04-01T21:17:48.907Z,64.73
2019-04-01T21:20:15.516Z,51.60
2019-04-01T21:22:42.038Z,37.60
2019-04-01T21:25:08.651Z,33.33
2019-04-01T21:27:35.231Z,29.43
2019-04-01T21:30:03.079Z,26.43
2019-04-01T21:32:29.597Z,58.53
2019-04-01T21:34:56.417Z,445.93
2019-04-01T21:37:22.825Z,109.27
2019-04-01T21:39:49.557Z,59.53
2019-04-01T21:42:15.995Z,56.90
2019-04-01T21:44:42.737Z,73.73
2019-04-01T21:47:09.322Z,64.00
2019-04-01T21:49:36.946Z,64.23
2019-04-01T21:52:04.603Z,132.77
2019-04-01T21:54:31.838Z,151.53
2019-04-01T21:56:58.847Z,101.37
2019-04-01T21:59:25.266Z,57.87
2019-04-01T22:01:51.872Z,53.70
2019-04-01T22:04:18.723Z,44.47
2019-04-01T22:06:45.356Z,46.27
2019-04-01T22:09:12.111Z,47.20
2019-04-01T22:11:39.024Z,80.50
2019-04-01T22:14:05.429Z,87.20
2019-04-01T22:16:32.389Z,59.03
2019-04-01T22:36:08.101Z,59.53
2019-04-01T22:38:35.191Z,50.10
2019-04-01T23:40:07.600Z,48.80
2019-04-01T23:42:34.457Z,34.03
2019-04-01T23:45:00.971Z,29.53
2019-04-01T23:47:30.218Z,27.00
2019-04-01T23:49:55.654Z,29.50
2019-04-01T23:52:22.063Z,26.60
2019-04-01T23:54:48.961Z,36.73
2019-04-01T23:57:15.779Z,42.83
2019-04-01T23:59:42.176Z,62.50
